sensor_id;sensor_type;location;lat;lon;timestamp;temperature;humidity
37240;DHT22;23130;48.760;9.178;2022-08-19T00:01:49;20.40;99.90
37240;DHT22;23130;48.760;9.178;2022-08-19T00:04:18;20.50;99.90
37240;DHT22;23130;48.760;9.178;2022-08-19T00:06:46;20.40;99.90
37240;DHT22;23130;48.760;9.178;2022-08-19T00:09:13;20.40;99.90
37240;DHT22;23130;48.760;9.178;2022-08-19T00:11:40;20.40;99.90
37240;DHT22;23130;48.760;9.178;2022-08-19T00:14:07;20.40;99.90
37240;DHT22;23130;48.760;9.178;2022-08-19T00:16:34;20.30;99.90
37240;DHT22;23130;48.760;9.178;2022-08-19T00:18:59;20.40;99.90
37240;DHT22;23130;48.760;9.178;2022-08-19T00:21:26;20.40;99.90
37240;DHT22;23130;48.760;9.178;2022-08-19T00:23:52;20.30;99.90
37240;DHT22;23130;48.760;9.178;2022-08-19T00:26:18;20.40;99.90
37240;DHT22;23130;48.760;9.178;2022-08-19T00:28:44;20.40;99.90
37240;DHT22;23130;48.760;9.178;2022-08-19T00:31:10;20.30;99.90
37240;DHT22;23130;48.760;9.178;2022-08-19T00:33:36;20.40;99.90
37240;DHT22;23130;48.760;9.178;2022-08-19T00:36:04;20.40;99.90
37240;DHT22;23130;48.760;9.178;2022-08-19T00:38:31;20.40;99.90
37240;DHT22;23130;48.760;9.178;2022-08-19T00:40:57;20.40;99.90
37240;DHT22;23130;48.760;9.178;2022-08-19T00:43:25;20.40;99.90
37240;DHT22;23130;48.760;9.178;2022-08-19T00:45:52;20.40;99.90
37240;DHT22;23130;48.760;9.178;2022-08-19T00:48:18;20.40;99.90
37240;DHT22;23130;48.760;9.178;2022-08-19T00:50:45;20.30;99.90
37240;DHT22;23130;48.760;9.178;2022-08-19T00:53:15;20.30;99.90
37240;DHT22;23130;48.760;9.178;2022-08-19T00:55:45;20.30;99.90
37240;DHT22;23130;48.760;9.178;2022-08-19T00:58:15;20.20;99.90
37240;DHT22;23130;48.760;9.178;2022-08-19T01:00:41;20.30;99.90
37240;DHT22;23130;48.760;9.178;2022-08-19T01:03:11;20.20;99.90
37240;DHT22;23130;48.760;9.178;2022-08-19T01:05:39;20.20;99.90
37240;DHT22;23130;48.760;9.178;2022-08-19T01:08:06;20.10;99.90
37240;DHT22;23130;48.760;9.178;2022-08-19T01:10:40;20.10;99.90
37240;DHT22;23130;48.760;9.178;2022-08-19T01:13:07;20.10;99.90
37240;DHT22;23130;48.760;9.178;2022-08-19T01:15:38;20.10;99.90
37240;DHT22;23130;48.760;9.178;2022-08-19T01:18:08;20.10;99.90
37240;DHT22;23130;48.760;9.178;2022-08-19T01:20:34;20.10;99.90
37240;DHT22;23130;48.760;9.178;2022-08-19T01:23:01;20.20;99.90
37240;DHT22;23130;48.760;9.178;2022-08-19T01:25:39;20.10;99.90
37240;DHT22;23130;48.760;9.178;2022-08-19T01:28:07;20.10;99.90
37240;DHT22;23130;48.760;9.178;2022-08-19T01:30:34;20.10;99.90
37240;DHT22;23130;48.760;9.178;2022-08-19T01:33:01;20.10;99.90
37240;DHT22;23130;48.760;9.178;2022-08-19T01:35:29;20.10;99.90
37240;DHT22;23130;48.760;9.178;2022-08-19T01:37:58;20.10;99.90
37240;DHT22;23130;48.760;9.178;2022-08-19T01:40:30;20.10;99.90
37240;DHT22;23130;48.760;9.178;2022-08-19T01:42:56;20.00;99.90
37240;DHT22;23130;48.760;9.178;2022-08-19T01:45:23;20.00;99.90
37240;DHT22;23130;48.760;9.178;2022-08-19T01:47:49;20.00;99.90
37240;DHT22;23130;48.760;9.178;2022-08-19T01:50:16;20.00;99.90
37240;DHT22;23130;48.760;9.178;2022-08-19T01:52:43;20.00;99.90
37240;DHT22;23130;48.760;9.178;2022-08-19T01:55:12;20.00;99.90
37240;DHT22;23130;48.760;9.178;2022-08-19T01:57:39;20.00;99.90
37240;DHT22;23130;48.760;9.178;2022-08-19T02:00:10;20.00;99.90
37240;DHT22;23130;48.760;9.178;2022-08-19T02:02:36;20.00;99.90
37240;DHT22;23130;48.760;9.178;2022-08-19T02:05:02;20.00;99.90
37240;DHT22;23130;48.760;9.178;2022-08-19T02:07:27;20.00;99.90
37240;DHT22;23130;48.760;9.178;2022-08-19T02:09:54;20.00;99.90
37240;DHT22;23130;48.760;9.178;2022-08-19T02:12:21;19.90;99.90
37240;DHT22;23130;48.760;9.178;2022-08-19T02:14:46;20.00;99.90
37240;DHT22;23130;48.760;9.178;2022-08-19T02:17:12;20.00;99.90
37240;DHT22;23130;48.760;9.178;2022-08-19T02:19:38;19.90;99.90
37240;DHT22;23130;48.760;9.178;2022-08-19T02:22:04;19.90;99.90
37240;DHT22;23130;48.760;9.178;2022-08-19T02:24:30;19.80;99.90
37240;DHT22;23130;48.760;9.178;2022-08-19T02:26:55;19.70;99.90
37240;DHT22;23130;48.760;9.178;2022-08-19T02:29:21;19.70;99.90
37240;DHT22;23130;48.760;9.178;2022-08-19T02:31:46;19.70;99.90
37240;DHT22;23130;48.760;9.178;2022-08-19T02:34:12;19.80;99.90
37240;DHT22;23130;48.760;9.178;2022-08-19T02:36:38;19.80;99.90
37240;DHT22;23130;48.760;9.178;2022-08-19T02:39:03;19.80;99.90
37240;DHT22;23130;48.760;9.178;2022-08-19T02:41:32;19.80;99.90
37240;DHT22;23130;48.760;9.178;2022-08-19T02:43:59;19.80;99.90
37240;DHT22;23130;48.760;9.178;2022-08-19T02:46:28;19.80;99.90
37240;DHT22;23130;48.760;9.178;2022-08-19T02:48:57;19.70;99.90
37240;DHT22;23130;48.760;9.178;2022-08-19T02:51:30;19.70;99.90
37240;DHT22;23130;48.760;9.178;2022-08-19T02:53:56;19.70;99.90
37240;DHT22;23130;48.760;9.178;2022-08-19T02:56:23;19.70;99.90
37240;DHT22;23130;48.760;9.178;2022-08-19T02:58:51;19.70;99.90
37240;DHT22;23130;48.760;9.178;2022-08-19T03:01:46;19.70;99.90
37240;DHT22;23130;48.760;9.178;2022-08-19T03:04:15;19.70;99.90
37240;DHT22;23130;48.760;9.178;2022-08-19T03:06:43;19.60;99.90
37240;DHT22;23130;48.760;9.178;2022-08-19T03:09:10;19.60;99.90
37240;DHT22;23130;48.760;9.178;2022-08-19T03:11:36;19.60;99.90
37240;DHT22;23130;48.760;9.178;2022-08-19T03:14:04;19.50;99.90
37240;DHT22;23130;48.760;9.178;2022-08-19T03:16:32;19.50;99.90
37240;DHT22;23130;48.760;9.178;2022-08-19T03:18:58;19.40;99.90
37240;DHT22;23130;48.760;9.178;2022-08-19T03:21:29;19.40;99.90
37240;DHT22;23130;48.760;9.178;2022-08-19T03:23:57;19.40;99.90
37240;DHT22;23130;48.760;9.178;2022-08-19T03:26:23;19.40;99.90
37240;DHT22;23130;48.760;9.178;2022-08-19T03:28:48;19.40;99.90
37240;DHT22;23130;48.760;9.178;2022-08-19T03:31:17;19.40;99.90
37240;DHT22;23130;48.760;9.178;2022-08-19T03:33:43;19.30;99.90
37240;DHT22;23130;48.760;9.178;2022-08-19T03:36:15;19.20;99.90
37240;DHT22;23130;48.760;9.178;2022-08-19T03:38:45;19.20;99.90
37240;DHT22;23130;48.760;9.178;2022-08-19T03:41:22;19.30;99.90
37240;DHT22;23130;48.760;9.178;2022-08-19T03:43:47;19.30;99.90
37240;DHT22;23130;48.760;9.178;2022-08-19T03:46:20;19.20;99.90
37240;DHT22;23130;48.760;9.178;2022-08-19T03:48:47;19.20;99.90
37240;DHT22;23130;48.760;9.178;2022-08-19T03:51:18;19.20;99.90
37240;DHT22;23130;48.760;9.178;2022-08-19T03:53:45;19.20;99.90
37240;DHT22;23130;48.760;9.178;2022-08-19T03:56:12;19.20;99.90
37240;DHT22;23130;48.760;9.178;2022-08-19T03:58:39;19.20;99.90
37240;DHT22;23130;48.760;9.178;2022-08-19T04:01:10;19.20;99.90
37240;DHT22;23130;48.760;9.178;2022-08-19T04:03:36;19.20;99.90
37240;DHT22;23130;48.760;9.178;2022-08-19T04:06:26;19.20;99.90
37240;DHT22;23130;48.760;9.178;2022-08-19T04:08:53;19.20;99.90
37240;DHT22;23130;48.760;9.178;2022-08-19T04:11:25;19.20;99.90
37240;DHT22;23130;48.760;9.178;2022-08-19T04:13:53;19.10;99.90
37240;DHT22;23130;48.760;9.178;2022-08-19T04:16:20;19.10;99.90
37240;DHT22;23130;48.760;9.178;2022-08-19T04:18:47;19.10;99.90
37240;DHT22;23130;48.760;9.178;2022-08-19T04:21:21;19.20;99.90
37240;DHT22;23130;48.760;9.178;2022-08-19T04:23:47;19.20;99.90
37240;DHT22;23130;48.760;9.178;2022-08-19T04:26:19;19.20;99.90
37240;DHT22;23130;48.760;9.178;2022-08-19T04:28:45;19.10;99.90
37240;DHT22;23130;48.760;9.178;2022-08-19T04:31:16;19.20;99.90
37240;DHT22;23130;48.760;9.178;2022-08-19T04:33:43;19.10;99.90
37240;DHT22;23130;48.760;9.178;2022-08-19T04:36:17;19.10;99.90
37240;DHT22;23130;48.760;9.178;2022-08-19T04:38:46;19.10;99.90
37240;DHT22;23130;48.760;9.178;2022-08-19T04:41:12;19.10;99.90
37240;DHT22;23130;48.760;9.178;2022-08-19T04:43:57;19.10;99.90
37240;DHT22;23130;48.760;9.178;2022-08-19T04:46:22;19.20;99.90
37240;DHT22;23130;48.760;9.178;2022-08-19T04:48:48;19.10;99.90
37240;DHT22;23130;48.760;9.178;2022-08-19T04:51:14;19.10;99.90
37240;DHT22;23130;48.760;9.178;2022-08-19T04:53:41;19.10;99.90
37240;DHT22;23130;48.760;9.178;2022-08-19T04:56:13;19.20;99.90
37240;DHT22;23130;48.760;9.178;2022-08-19T04:58:41;19.20;99.90
37240;DHT22;23130;48.760;9.178;2022-08-19T05:01:11;19.20;99.90
37240;DHT22;23130;48.760;9.178;2022-08-19T05:03:37;19.20;99.90
37240;DHT22;23130;48.760;9.178;2022-08-19T05:06:11;19.30;99.90
37240;DHT22;23130;48.760;9.178;2022-08-19T05:08:39;19.30;99.90
37240;DHT22;23130;48.760;9.178;2022-08-19T05:11:18;19.30;99.90
37240;DHT22;23130;48.760;9.178;2022-08-19T05:13:46;19.30;99.90
37240;DHT22;23130;48.760;9.178;2022-08-19T05:16:14;19.20;99.90
37240;DHT22;23130;48.760;9.178;2022-08-19T05:18:40;19.30;99.90
37240;DHT22;23130;48.760;9.178;2022-08-19T05:21:26;19.30;99.90
37240;DHT22;23130;48.760;9.178;2022-08-19T05:24:10;19.40;99.90
37240;DHT22;23130;48.760;9.178;2022-08-19T05:26:41;19.30;99.90
37240;DHT22;23130;48.760;9.178;2022-08-19T05:29:07;19.40;99.90
37240;DHT22;23130;48.760;9.178;2022-08-19T05:31:34;19.40;99.90
37240;DHT22;23130;48.760;9.178;2022-08-19T05:34:00;19.40;99.90
37240;DHT22;23130;48.760;9.178;2022-08-19T05:36:27;19.50;99.90
37240;DHT22;23130;48.760;9.178;2022-08-19T05:38:53;19.50;99.90
37240;DHT22;23130;48.760;9.178;2022-08-19T05:41:22;19.40;99.90
37240;DHT22;23130;48.760;9.178;2022-08-19T05:43:55;19.40;99.90
37240;DHT22;23130;48.760;9.178;2022-08-19T05:46:21;19.40;99.90
37240;DHT22;23130;48.760;9.178;2022-08-19T05:48:47;19.40;99.90
37240;DHT22;23130;48.760;9.178;2022-08-19T05:51:14;19.40;99.90
37240;DHT22;23130;48.760;9.178;2022-08-19T05:53:42;19.40;99.90
37240;DHT22;23130;48.760;9.178;2022-08-19T05:56:09;19.40;99.90
37240;DHT22;23130;48.760;9.178;2022-08-19T05:58:36;19.50;99.90
37240;DHT22;23130;48.760;9.178;2022-08-19T06:01:04;19.50;99.90
37240;DHT22;23130;48.760;9.178;2022-08-19T06:03:32;19.40;99.90
37240;DHT22;23130;48.760;9.178;2022-08-19T06:05:59;19.50;99.90
37240;DHT22;23130;48.760;9.178;2022-08-19T06:08:26;19.40;99.90
37240;DHT22;23130;48.760;9.178;2022-08-19T06:10:52;19.40;99.90
37240;DHT22;23130;48.760;9.178;2022-08-19T06:13:18;19.50;99.90
37240;DHT22;23130;48.760;9.178;2022-08-19T06:15:45;19.50;99.90
37240;DHT22;23130;48.760;9.178;2022-08-19T06:18:12;19.50;99.90
37240;DHT22;23130;48.760;9.178;2022-08-19T06:20:38;19.50;99.90
37240;DHT22;23130;48.760;9.178;2022-08-19T06:23:04;19.40;99.90
37240;DHT22;23130;48.760;9.178;2022-08-19T06:25:29;19.50;99.90
37240;DHT22;23130;48.760;9.178;2022-08-19T06:27:55;19.50;99.90
37240;DHT22;23130;48.760;9.178;2022-08-19T06:30:21;19.50;99.90
37240;DHT22;23130;48.760;9.178;2022-08-19T06:32:47;19.60;99.90
37240;DHT22;23130;48.760;9.178;2022-08-19T06:35:13;19.50;99.90
37240;DHT22;23130;48.760;9.178;2022-08-19T06:37:40;19.50;99.90
37240;DHT22;23130;48.760;9.178;2022-08-19T06:40:06;19.50;99.90
37240;DHT22;23130;48.760;9.178;2022-08-19T06:42:34;19.50;99.90
37240;DHT22;23130;48.760;9.178;2022-08-19T06:45:00;19.40;99.90
37240;DHT22;23130;48.760;9.178;2022-08-19T06:47:28;19.30;99.90
37240;DHT22;23130;48.760;9.178;2022-08-19T06:49:56;19.20;99.90
37240;DHT22;23130;48.760;9.178;2022-08-19T06:52:25;19.20;99.90
37240;DHT22;23130;48.760;9.178;2022-08-19T06:54:50;19.10;99.90
37240;DHT22;23130;48.760;9.178;2022-08-19T06:57:16;19.00;99.90
37240;DHT22;23130;48.760;9.178;2022-08-19T06:59:42;19.00;99.90
37240;DHT22;23130;48.760;9.178;2022-08-19T07:02:07;19.00;99.90
37240;DHT22;23130;48.760;9.178;2022-08-19T07:04:34;19.00;99.90
37240;DHT22;23130;48.760;9.178;2022-08-19T07:07:07;19.00;99.90
37240;DHT22;23130;48.760;9.178;2022-08-19T07:09:35;19.00;99.90
37240;DHT22;23130;48.760;9.178;2022-08-19T07:12:03;19.00;99.90
37240;DHT22;23130;48.760;9.178;2022-08-19T07:14:29;19.00;99.90
37240;DHT22;23130;48.760;9.178;2022-08-19T07:16:56;19.10;99.90
37240;DHT22;23130;48.760;9.178;2022-08-19T07:19:24;19.10;99.90
37240;DHT22;23130;48.760;9.178;2022-08-19T07:21:52;19.20;99.90
37240;DHT22;23130;48.760;9.178;2022-08-19T07:24:23;19.20;99.90
37240;DHT22;23130;48.760;9.178;2022-08-19T07:26:50;19.10;99.90
37240;DHT22;23130;48.760;9.178;2022-08-19T07:29:19;19.20;99.90
37240;DHT22;23130;48.760;9.178;2022-08-19T07:31:49;19.20;99.90
37240;DHT22;23130;48.760;9.178;2022-08-19T07:34:15;19.20;99.90
37240;DHT22;23130;48.760;9.178;2022-08-19T07:36:42;19.20;99.90
37240;DHT22;23130;48.760;9.178;2022-08-19T07:39:18;19.30;99.90
37240;DHT22;23130;48.760;9.178;2022-08-19T07:41:45;19.30;99.90
37240;DHT22;23130;48.760;9.178;2022-08-19T07:44:11;19.30;99.90
37240;DHT22;23130;48.760;9.178;2022-08-19T07:46:42;19.30;99.90
37240;DHT22;23130;48.760;9.178;2022-08-19T07:49:10;19.20;99.90
37240;DHT22;23130;48.760;9.178;2022-08-19T07:51:55;19.20;99.90
37240;DHT22;23130;48.760;9.178;2022-08-19T07:54:23;19.10;99.90
37240;DHT22;23130;48.760;9.178;2022-08-19T07:56:49;19.10;99.90
37240;DHT22;23130;48.760;9.178;2022-08-19T07:59:17;19.20;99.90
37240;DHT22;23130;48.760;9.178;2022-08-19T08:01:44;19.20;99.90
37240;DHT22;23130;48.760;9.178;2022-08-19T08:04:09;19.20;99.90
37240;DHT22;23130;48.760;9.178;2022-08-19T08:06:54;19.20;99.90
37240;DHT22;23130;48.760;9.178;2022-08-19T08:09:40;19.30;99.90
37240;DHT22;23130;48.760;9.178;2022-08-19T08:12:13;19.20;99.90
37240;DHT22;23130;48.760;9.178;2022-08-19T08:14:47;19.20;99.90
37240;DHT22;23130;48.760;9.178;2022-08-19T08:17:14;19.20;99.90
37240;DHT22;23130;48.760;9.178;2022-08-19T08:19:41;19.20;99.90
37240;DHT22;23130;48.760;9.178;2022-08-19T08:22:08;19.10;99.90
37240;DHT22;23130;48.760;9.178;2022-08-19T08:24:54;19.00;99.90
37240;DHT22;23130;48.760;9.178;2022-08-19T08:27:38;18.90;99.90
37240;DHT22;23130;48.760;9.178;2022-08-19T08:30:10;18.60;99.90
37240;DHT22;23130;48.760;9.178;2022-08-19T08:32:37;18.40;99.90
37240;DHT22;23130;48.760;9.178;2022-08-19T08:35:08;18.30;99.90
37240;DHT22;23130;48.760;9.178;2022-08-19T08:37:34;18.20;99.90
37240;DHT22;23130;48.760;9.178;2022-08-19T08:40:05;18.20;99.90
37240;DHT22;23130;48.760;9.178;2022-08-19T08:42:36;18.20;99.90
37240;DHT22;23130;48.760;9.178;2022-08-19T08:45:12;18.20;99.90
37240;DHT22;23130;48.760;9.178;2022-08-19T08:47:42;18.20;99.90
37240;DHT22;23130;48.760;9.178;2022-08-19T08:50:33;18.30;99.90
37240;DHT22;23130;48.760;9.178;2022-08-19T08:53:02;18.40;99.90
37240;DHT22;23130;48.760;9.178;2022-08-19T08:55:30;18.40;99.90
37240;DHT22;23130;48.760;9.178;2022-08-19T08:58:06;18.40;99.90
37240;DHT22;23130;48.760;9.178;2022-08-19T09:00:37;18.50;99.90
37240;DHT22;23130;48.760;9.178;2022-08-19T09:03:06;18.60;99.90
37240;DHT22;23130;48.760;9.178;2022-08-19T09:05:56;18.70;99.90
37240;DHT22;23130;48.760;9.178;2022-08-19T09:11:18;18.80;99.90
37240;DHT22;23130;48.760;9.178;2022-08-19T09:14:07;18.90;99.90
37240;DHT22;23130;48.760;9.178;2022-08-19T09:16:34;18.90;99.90
37240;DHT22;23130;48.760;9.178;2022-08-19T09:19:04;19.00;99.90
37240;DHT22;23130;48.760;9.178;2022-08-19T09:21:30;19.10;99.90
37240;DHT22;23130;48.760;9.178;2022-08-19T09:23:56;19.10;99.90
37240;DHT22;23130;48.760;9.178;2022-08-19T09:26:24;19.10;99.90
37240;DHT22;23130;48.760;9.178;2022-08-19T09:28:51;19.20;99.90
37240;DHT22;23130;48.760;9.178;2022-08-19T09:31:23;19.30;99.90
37240;DHT22;23130;48.760;9.178;2022-08-19T09:33:49;19.30;99.90
37240;DHT22;23130;48.760;9.178;2022-08-19T09:36:18;19.40;99.90
37240;DHT22;23130;48.760;9.178;2022-08-19T09:38:44;19.40;99.90
37240;DHT22;23130;48.760;9.178;2022-08-19T09:41:14;19.60;99.90
37240;DHT22;23130;48.760;9.178;2022-08-19T09:43:40;19.60;99.90
37240;DHT22;23130;48.760;9.178;2022-08-19T09:46:07;19.70;99.90
37240;DHT22;23130;48.760;9.178;2022-08-19T09:48:38;19.80;99.90
37240;DHT22;23130;48.760;9.178;2022-08-19T09:51:12;19.80;99.90
37240;DHT22;23130;48.760;9.178;2022-08-19T09:53:41;19.90;99.90
37240;DHT22;23130;48.760;9.178;2022-08-19T09:56:08;20.00;99.90
37240;DHT22;23130;48.760;9.178;2022-08-19T09:58:35;20.00;99.90
37240;DHT22;23130;48.760;9.178;2022-08-19T10:01:02;20.10;99.90
37240;DHT22;23130;48.760;9.178;2022-08-19T10:03:29;20.10;99.90
37240;DHT22;23130;48.760;9.178;2022-08-19T10:05:56;20.20;99.90
37240;DHT22;23130;48.760;9.178;2022-08-19T10:08:25;20.20;99.90
37240;DHT22;23130;48.760;9.178;2022-08-19T10:10:52;20.30;99.90
37240;DHT22;23130;48.760;9.178;2022-08-19T10:13:21;20.30;99.90
37240;DHT22;23130;48.760;9.178;2022-08-19T10:15:52;20.40;99.90
37240;DHT22;23130;48.760;9.178;2022-08-19T10:18:20;20.30;99.90
37240;DHT22;23130;48.760;9.178;2022-08-19T10:20:47;20.50;99.90
37240;DHT22;23130;48.760;9.178;2022-08-19T10:23:13;20.50;99.90
37240;DHT22;23130;48.760;9.178;2022-08-19T10:25:41;20.60;99.90
37240;DHT22;23130;48.760;9.178;2022-08-19T10:28:07;20.60;99.90
37240;DHT22;23130;48.760;9.178;2022-08-19T10:30:33;20.60;99.90
37240;DHT22;23130;48.760;9.178;2022-08-19T10:33:00;20.60;99.90
37240;DHT22;23130;48.760;9.178;2022-08-19T10:35:26;20.60;99.90
37240;DHT22;23130;48.760;9.178;2022-08-19T10:37:53;20.60;99.90
37240;DHT22;23130;48.760;9.178;2022-08-19T10:40:19;20.70;99.90
37240;DHT22;23130;48.760;9.178;2022-08-19T10:42:44;20.70;99.90
37240;DHT22;23130;48.760;9.178;2022-08-19T10:45:10;20.70;99.90
37240;DHT22;23130;48.760;9.178;2022-08-19T10:47:36;20.70;99.90
37240;DHT22;23130;48.760;9.178;2022-08-19T10:50:03;20.70;99.90
37240;DHT22;23130;48.760;9.178;2022-08-19T10:52:49;20.80;99.90
37240;DHT22;23130;48.760;9.178;2022-08-19T10:55:14;21.00;99.90
37240;DHT22;23130;48.760;9.178;2022-08-19T10:57:58;21.20;99.90
37240;DHT22;23130;48.760;9.178;2022-08-19T11:00:24;21.30;99.90
37240;DHT22;23130;48.760;9.178;2022-08-19T11:02:51;21.30;99.90
37240;DHT22;23130;48.760;9.178;2022-08-19T11:05:17;21.30;99.90
37240;DHT22;23130;48.760;9.178;2022-08-19T11:07:43;21.30;99.90
37240;DHT22;23130;48.760;9.178;2022-08-19T11:10:11;21.20;99.90
37240;DHT22;23130;48.760;9.178;2022-08-19T11:12:38;21.20;99.90
37240;DHT22;23130;48.760;9.178;2022-08-19T11:15:08;21.10;99.90
37240;DHT22;23130;48.760;9.178;2022-08-19T11:17:34;21.20;99.90
37240;DHT22;23130;48.760;9.178;2022-08-19T11:20:01;21.20;99.90
37240;DHT22;23130;48.760;9.178;2022-08-19T11:22:30;21.30;99.90
37240;DHT22;23130;48.760;9.178;2022-08-19T11:24:55;21.30;99.90
37240;DHT22;23130;48.760;9.178;2022-08-19T11:27:21;21.50;99.90
37240;DHT22;23130;48.760;9.178;2022-08-19T11:29:46;21.70;99.90
37240;DHT22;23130;48.760;9.178;2022-08-19T11:32:12;21.80;99.90
37240;DHT22;23130;48.760;9.178;2022-08-19T11:34:38;21.90;99.90
37240;DHT22;23130;48.760;9.178;2022-08-19T11:37:05;22.00;99.90
37240;DHT22;23130;48.760;9.178;2022-08-19T11:39:33;22.10;99.90
37240;DHT22;23130;48.760;9.178;2022-08-19T11:42:00;22.30;99.90
37240;DHT22;23130;48.760;9.178;2022-08-19T11:44:27;22.30;99.90
37240;DHT22;23130;48.760;9.178;2022-08-19T11:46:56;22.40;99.90
37240;DHT22;23130;48.760;9.178;2022-08-19T11:49:21;22.30;99.90
37240;DHT22;23130;48.760;9.178;2022-08-19T11:51:47;22.40;99.90
37240;DHT22;23130;48.760;9.178;2022-08-19T11:54:14;22.40;99.90
37240;DHT22;23130;48.760;9.178;2022-08-19T11:56:42;22.40;99.90
37240;DHT22;23130;48.760;9.178;2022-08-19T11:59:08;22.40;99.90
37240;DHT22;23130;48.760;9.178;2022-08-19T12:01:33;22.40;99.90
37240;DHT22;23130;48.760;9.178;2022-08-19T12:03:59;22.50;99.90
37240;DHT22;23130;48.760;9.178;2022-08-19T12:06:30;22.60;99.90
37240;DHT22;23130;48.760;9.178;2022-08-19T12:08:58;22.60;99.90
37240;DHT22;23130;48.760;9.178;2022-08-19T12:11:25;22.60;99.90
37240;DHT22;23130;48.760;9.178;2022-08-19T12:13:51;22.50;99.90
37240;DHT22;23130;48.760;9.178;2022-08-19T12:16:22;22.60;99.90
37240;DHT22;23130;48.760;9.178;2022-08-19T12:18:49;22.50;99.90
37240;DHT22;23130;48.760;9.178;2022-08-19T12:21:22;22.60;99.90
37240;DHT22;23130;48.760;9.178;2022-08-19T12:23:49;22.60;99.90
37240;DHT22;23130;48.760;9.178;2022-08-19T12:26:15;22.60;99.90
37240;DHT22;23130;48.760;9.178;2022-08-19T12:28:42;22.60;99.90
37240;DHT22;23130;48.760;9.178;2022-08-19T12:31:08;22.60;99.90
37240;DHT22;23130;48.760;9.178;2022-08-19T12:33:34;22.60;99.90
37240;DHT22;23130;48.760;9.178;2022-08-19T12:36:03;22.50;99.90
37240;DHT22;23130;48.760;9.178;2022-08-19T12:38:29;22.50;99.90
37240;DHT22;23130;48.760;9.178;2022-08-19T12:40:55;22.50;99.90
37240;DHT22;23130;48.760;9.178;2022-08-19T12:43:20;22.50;99.90
37240;DHT22;23130;48.760;9.178;2022-08-19T12:45:47;22.30;99.90
37240;DHT22;23130;48.760;9.178;2022-08-19T12:48:13;22.20;99.90
37240;DHT22;23130;48.760;9.178;2022-08-19T12:50:43;22.10;99.90
37240;DHT22;23130;48.760;9.178;2022-08-19T12:53:13;21.90;99.90
37240;DHT22;23130;48.760;9.178;2022-08-19T12:55:38;22.00;99.90
37240;DHT22;23130;48.760;9.178;2022-08-19T12:58:05;22.20;99.90
37240;DHT22;23130;48.760;9.178;2022-08-19T13:00:31;22.40;99.90
37240;DHT22;23130;48.760;9.178;2022-08-19T13:02:58;22.60;99.90
37240;DHT22;23130;48.760;9.178;2022-08-19T13:05:27;22.80;99.90
37240;DHT22;23130;48.760;9.178;2022-08-19T13:07:55;23.00;99.90
37240;DHT22;23130;48.760;9.178;2022-08-19T13:10:24;23.10;99.90
37240;DHT22;23130;48.760;9.178;2022-08-19T13:12:51;23.20;99.90
37240;DHT22;23130;48.760;9.178;2022-08-19T13:15:18;23.00;99.90
37240;DHT22;23130;48.760;9.178;2022-08-19T13:17:48;22.70;99.90
37240;DHT22;23130;48.760;9.178;2022-08-19T13:20:17;22.60;99.90
37240;DHT22;23130;48.760;9.178;2022-08-19T13:22:44;22.30;99.90
37240;DHT22;23130;48.760;9.178;2022-08-19T13:25:11;22.10;99.90
37240;DHT22;23130;48.760;9.178;2022-08-19T13:27:38;21.80;99.90
37240;DHT22;23130;48.760;9.178;2022-08-19T13:30:05;21.70;99.90
37240;DHT22;23130;48.760;9.178;2022-08-19T13:32:50;21.50;99.90
37240;DHT22;23130;48.760;9.178;2022-08-19T13:35:34;21.30;99.90
37240;DHT22;23130;48.760;9.178;2022-08-19T13:38:00;21.20;99.90
37240;DHT22;23130;48.760;9.178;2022-08-19T13:40:30;21.10;99.90
37240;DHT22;23130;48.760;9.178;2022-08-19T13:42:56;21.10;99.90
37240;DHT22;23130;48.760;9.178;2022-08-19T13:45:24;21.10;99.90
37240;DHT22;23130;48.760;9.178;2022-08-19T13:47:52;21.10;99.90
37240;DHT22;23130;48.760;9.178;2022-08-19T13:50:21;21.00;99.90
37240;DHT22;23130;48.760;9.178;2022-08-19T13:52:48;21.00;99.90
37240;DHT22;23130;48.760;9.178;2022-08-19T13:55:14;20.90;99.90
37240;DHT22;23130;48.760;9.178;2022-08-19T13:57:40;20.80;99.90
37240;DHT22;23130;48.760;9.178;2022-08-19T14:00:12;20.70;99.90
37240;DHT22;23130;48.760;9.178;2022-08-19T14:02:39;20.60;99.90
37240;DHT22;23130;48.760;9.178;2022-08-19T14:05:07;20.50;99.90
37240;DHT22;23130;48.760;9.178;2022-08-19T14:07:33;20.40;99.90
37240;DHT22;23130;48.760;9.178;2022-08-19T14:09:59;20.30;99.90
37240;DHT22;23130;48.760;9.178;2022-08-19T14:12:25;20.30;99.90
37240;DHT22;23130;48.760;9.178;2022-08-19T14:14:50;20.30;99.90
37240;DHT22;23130;48.760;9.178;2022-08-19T14:17:16;20.30;99.90
37240;DHT22;23130;48.760;9.178;2022-08-19T14:19:43;20.30;99.90
37240;DHT22;23130;48.760;9.178;2022-08-19T14:22:09;20.40;99.90
37240;DHT22;23130;48.760;9.178;2022-08-19T14:24:37;20.50;99.90
37240;DHT22;23130;48.760;9.178;2022-08-19T14:27:04;20.50;99.90
37240;DHT22;23130;48.760;9.178;2022-08-19T14:29:29;20.60;99.90
37240;DHT22;23130;48.760;9.178;2022-08-19T14:31:55;20.70;99.90
37240;DHT22;23130;48.760;9.178;2022-08-19T14:34:24;20.70;99.90
37240;DHT22;23130;48.760;9.178;2022-08-19T14:36:50;20.80;99.90
37240;DHT22;23130;48.760;9.178;2022-08-19T14:39:15;20.90;99.90
37240;DHT22;23130;48.760;9.178;2022-08-19T14:41:41;21.00;99.90
37240;DHT22;23130;48.760;9.178;2022-08-19T14:44:08;21.20;99.90
37240;DHT22;23130;48.760;9.178;2022-08-19T14:46:37;21.40;99.90
37240;DHT22;23130;48.760;9.178;2022-08-19T14:49:03;21.50;99.90
37240;DHT22;23130;48.760;9.178;2022-08-19T14:51:29;21.60;99.90
37240;DHT22;23130;48.760;9.178;2022-08-19T14:53:55;21.60;99.90
37240;DHT22;23130;48.760;9.178;2022-08-19T14:56:27;21.60;99.90
37240;DHT22;23130;48.760;9.178;2022-08-19T14:58:56;21.60;99.90
37240;DHT22;23130;48.760;9.178;2022-08-19T15:01:24;21.60;99.90
37240;DHT22;23130;48.760;9.178;2022-08-19T15:03:50;21.60;99.90
37240;DHT22;23130;48.760;9.178;2022-08-19T15:06:18;21.60;99.90
37240;DHT22;23130;48.760;9.178;2022-08-19T15:08:43;21.70;99.90
37240;DHT22;23130;48.760;9.178;2022-08-19T15:11:15;21.70;99.90
37240;DHT22;23130;48.760;9.178;2022-08-19T15:13:43;21.90;99.90
37240;DHT22;23130;48.760;9.178;2022-08-19T15:16:09;22.10;99.90
37240;DHT22;23130;48.760;9.178;2022-08-19T15:18:35;22.20;99.90
37240;DHT22;23130;48.760;9.178;2022-08-19T15:21:02;22.40;99.90
37240;DHT22;23130;48.760;9.178;2022-08-19T15:23:27;22.60;99.90
37240;DHT22;23130;48.760;9.178;2022-08-19T15:25:53;22.80;99.90
37240;DHT22;23130;48.760;9.178;2022-08-19T15:28:21;23.10;99.90
37240;DHT22;23130;48.760;9.178;2022-08-19T15:30:47;23.30;99.90
37240;DHT22;23130;48.760;9.178;2022-08-19T15:33:13;23.60;99.90
37240;DHT22;23130;48.760;9.178;2022-08-19T15:35:40;23.70;99.90
37240;DHT22;23130;48.760;9.178;2022-08-19T15:38:08;23.60;99.90
37240;DHT22;23130;48.760;9.178;2022-08-19T15:40:34;23.60;99.90